Roaring Branch, Pennsylvania
Current Conditions -  °F | °C
As of 11:54 PM on Friday 21 Nov 2014 (Local Time) from KIPT Reporting Station
Clear Clear  
Wind Chill: -6°   Ceiling: Unl
Heat Index: -6°   Visibility: 10mi
Dew Point: -12°   Wind: 0mph
Humidity: 65%   Direction: NA
Pressure: 30.5"   Gusts: NA
Location:  41.57°N, 76.95°W
Report Text: KIPT 220454Z AUTO 00000KT 10SM CLR M06/M12 A3050 RMK AO2 SLP334 T10611117 400221061
Loading
Personal Weather Stations






























Interactive Weather Map New forecast layout! Learn more

10-Day Weather Forecast

Advertisements
Track Severe Weather on mobile